Time;durP1;ratioP1;P1;durP2;ratioP2;P2;SDS_P1;SDS_P2;PMS_P1;PMS_P2;Temp;Humidity;BMP_temperature;BMP_pressure;BME280_temperature;BME280_humidity;BME280_pressure;Samples;Min_cycle;Max_cycle;Signal;HPM_P1;HPM_P2
2022/04/29 00:00:47;;;;;;;;;29.00;25.33;;;;;16.63;45.10;102221.19;4996591;28;45396;-69
2022/04/29 00:03:14;;;;;;;;;21.67;20.67;;;;;16.60;45.18;102217.94;4978611;28;47393;-68
2022/04/29 00:05:42;;;;;;;;;28.33;26.67;;;;;16.60;45.40;102220.63;4996420;28;45354;-66
2022/04/29 00:08:09;;;;;;;;;27.00;26.67;;;;;16.48;45.51;102219.97;4994457;28;45496;-67
2022/04/29 00:10:35;;;;;;;;;23.00;22.67;;;;;16.37;45.32;102206.72;4995979;28;45384;-67
2022/04/29 00:13:02;;;;;;;;;30.33;25.00;;;;;16.41;45.47;102211.63;4995956;28;45361;-68
2022/04/29 00:15:28;;;;;;;;;23.00;21.00;;;;;16.39;45.81;102218.16;4979080;28;46311;-66
2022/04/29 00:17:55;;;;;;;;;29.00;29.00;;;;;16.26;45.88;102223.00;5014102;28;45213;-68
2022/04/29 00:20:21;;;;;;;;;30.00;27.00;;;;;15.56;46.51;102114.25;4997922;28;45412;-68
2022/04/29 00:22:46;;;;;;;;;30.67;27.00;;;;;15.63;46.32;102118.09;5015253;28;45646;-68
2022/04/29 00:25:12;;;;;;;;;26.67;26.67;;;;;16.17;46.45;102199.72;4997745;28;45561;-67
2022/04/29 00:27:40;;;;;;;;;29.00;28.00;;;;;16.10;46.52;102194.94;5015336;28;45485;-66
2022/04/29 00:30:07;;;;;;;;;25.67;25.67;;;;;16.05;46.04;102170.38;5015885;28;45600;-69
2022/04/29 00:32:33;;;;;;;;;23.00;21.00;;;;;16.17;46.46;102178.25;5015338;28;46387;-65
2022/04/29 00:34:58;;;;;;;;;32.67;27.67;;;;;15.59;46.41;102087.19;5018445;28;45254;-66
2022/04/29 00:37:24;;;;;;;;;30.67;26.67;;;;;16.04;46.45;102147.22;5019212;28;45183;-68
2022/04/29 00:39:50;;;;;;;;;25.33;25.00;;;;;16.14;46.49;102179.38;5019528;28;45226;-65
2022/04/29 00:42:18;;;;;;;;;33.67;25.67;;;;;15.96;46.41;102147.09;5019278;28;45308;-65
2022/04/29 00:44:45;;;;;;;;;26.67;25.33;;;;;16.08;47.33;102180.81;5019168;28;45462;-67
2022/04/29 00:47:13;;;;;;;;;39.67;36.67;;;;;15.99;47.36;102181.66;5004261;28;45386;-66
2022/04/29 00:49:40;;;;;;;;;33.00;29.00;;;;;15.29;47.54;102075.66;4999605;28;45323;-67
2022/04/29 00:52:07;;;;;;;;;32.67;28.67;;;;;15.83;47.58;102170.72;4998984;28;46165;-68
2022/04/29 00:54:36;;;;;;;;;32.67;31.00;;;;;15.77;47.97;102172.13;4999186;28;45335;-68
2022/04/29 00:57:06;;;;;;;;;33.67;32.00;;;;;15.68;47.68;102154.22;5012473;28;45603;-68
2022/04/29 01:00:19;;;;;;;;;31.33;29.00;;;;;15.03;48.36;102083.41;5019225;28;45416;-67
2022/04/29 01:02:54;;;;;;;;;31.67;29.67;;;;;15.44;48.61;102165.34;5016833;28;47053;-67
2022/04/29 01:05:25;;;;;;;;;43.33;33.33;;;;;15.39;48.87;102175.63;5006340;28;45459;-66
2022/04/29 01:07:51;;;;;;;;;39.00;34.33;;;;;15.31;49.33;102164.78;4998770;28;45299;-67
2022/04/29 01:10:20;;;;;;;;;41.00;32.67;;;;;15.13;49.65;102161.09;4980836;28;45323;-67
2022/04/29 01:12:49;;;;;;;;;36.00;30.00;;;;;14.79;50.13;102109.72;4998744;28;46528;-67
2022/04/29 01:15:17;;;;;;;;;38.00;31.00;;;;;15.10;49.51;102167.56;4999275;28;45466;-67
2022/04/29 01:17:45;;;;;;;;;31.67;29.00;;;;;15.10;49.73;102161.38;4999743;28;45331;-67
2022/04/29 01:20:13;;;;;;;;;39.33;34.67;;;;;14.91;49.89;102146.94;5013117;28;45605;-67
2022/04/29 01:22:38;;;;;;;;;35.33;34.00;;;;;14.97;50.35;102156.25;5018259;28;45487;-67
2022/04/29 01:25:04;;;;;;;;;39.00;34.00;;;;;14.92;50.42;102153.16;5000176;28;45468;-67
2022/04/29 01:27:30;;;;;;;;;33.67;31.67;;;;;14.97;50.18;102150.91;5000494;28;45373;-69
2022/04/29 01:30:01;;;;;;;;;32.67;30.00;;;;;15.02;49.99;102146.00;5000701;28;45608;-66
2022/04/29 01:32:27;;;;;;;;;40.33;33.67;;;;;15.05;50.12;102144.88;5033623;28;47466;-66
2022/04/29 01:34:53;;;;;;;;;34.67;32.00;;;;;14.94;50.27;102132.44;5032712;28;45331;-68
2022/04/29 01:37:18;;;;;;;;;36.33;33.33;;;;;14.98;50.11;102141.03;5018182;28;45387;-66
2022/04/29 01:39:43;;;;;;;;;34.00;30.00;;;;;14.99;50.20;102148.94;5018522;28;45361;-66
2022/04/29 01:42:09;;;;;;;;;35.33;31.67;;;;;14.95;49.85;102144.84;5018173;28;46356;-65
2022/04/29 01:44:34;;;;;;;;;46.00;37.33;;;;;15.01;50.14;102151.47;5016518;28;45328;-66
2022/04/29 01:46:59;;;;;;;;;41.67;35.00;;;;;14.79;49.74;102104.34;5032635;28;45412;-68
2022/04/29 01:49:25;;;;;;;;;43.67;38.33;;;;;15.06;49.86;102155.44;5017754;28;45278;-68
2022/04/29 01:51:50;;;;;;;;;32.33;28.33;;;;;14.63;49.82;102086.19;5017756;28;45423;-65
2022/04/29 01:54:15;;;;;;;;;15.00;8.33;;;;;15.00;49.62;102147.09;5030421;28;45824;-68
2022/04/29 01:56:44;;;;;;;;;40.67;34.33;;;;;15.04;49.74;102151.22;4998221;28;45439;-68
2022/04/29 01:59:12;;;;;;;;;35.67;33.00;;;;;14.54;49.71;102062.91;4999170;28;45416;-67
2022/04/29 02:01:37;;;;;;;;;40.00;34.00;;;;;14.71;49.78;102094.34;4980137;28;46030;-67
2022/04/29 02:04:03;;;;;;;;;46.00;34.67;;;;;14.90;49.84;102123.00;4998285;28;45269;-65
2022/04/29 02:06:28;;;;;;;;;36.33;32.33;;;;;15.06;49.71;102143.88;5016643;28;45445;-68
2022/04/29 02:08:54;;;;;;;;;38.67;34.67;;;;;14.98;49.60;102141.88;5032828;28;45634;-68
2022/04/29 02:11:20;;;;;;;;;37.67;34.67;;;;;14.92;49.95;102158.50;5017703;28;45353;-67
2022/04/29 02:13:47;;;;;;;;;39.00;35.00;;;;;14.59;49.94;102090.09;5016014;28;45297;-66
2022/04/29 02:16:13;;;;;;;;;43.67;37.00;;;;;14.95;49.75;102162.75;5017690;28;45257;-67
2022/04/29 02:18:39;;;;;;;;;28.00;27.00;;;;;14.96;49.65;102167.97;5017968;28;45611;-69
2022/04/29 02:21:04;;;;;;;;;39.00;34.00;;;;;14.62;49.59;102121.97;5017223;28;46162;-68
2022/04/29 02:23:30;;;;;;;;;39.67;36.33;;;;;14.94;49.92;102174.44;5017480;28;45195;-66
2022/04/29 02:25:57;;;;;;;;;43.00;36.00;;;;;14.58;49.84;102121.34;5001832;28;45648;-68
2022/04/29 02:28:23;;;;;;;;;48.67;38.67;;;;;14.08;50.41;102058.09;4997814;28;45241;-68
2022/04/29 02:30:48;;;;;;;;;31.00;27.33;;;;;14.69;50.60;102160.56;4997288;28;45394;-68
2022/04/29 02:33:14;;;;;;;;;44.00;39.33;;;;;14.49;50.58;102121.34;4997351;28;45354;-67
2022/04/29 02:35:39;;;;;;;;;39.00;34.33;;;;;14.56;50.38;102136.72;4997778;28;45458;-66
2022/04/29 02:38:05;;;;;;;;;41.00;33.67;;;;;14.51;50.71;102138.94;4996177;28;45302;-65
2022/04/29 02:40:30;;;;;;;;;25.33;20.67;;;;;14.77;50.84;102175.94;4995590;28;45667;-68
2022/04/29 02:42:55;;;;;;;;;39.67;35.33;;;;;14.75;50.23;102151.97;4979262;28;45488;-69
2022/04/29 02:45:21;;;;;;;;;34.00;30.33;;;;;14.64;49.90;102121.81;4997453;28;45573;-64
2022/04/29 02:47:46;;;;;;;;;34.00;27.00;;;;;14.80;49.91;102172.97;4997686;28;45392;-68
2022/04/29 02:50:12;;;;;;;;;43.33;35.67;;;;;14.72;50.07;102178.19;4997252;28;45996;-67
2022/04/29 02:52:37;;;;;;;;;25.33;24.67;;;;;14.65;50.05;102160.97;4979945;28;46221;-67
2022/04/29 02:55:03;;;;;;;;;28.33;27.33;;;;;14.64;50.10;102165.50;5015403;28;45474;-66
2022/04/29 02:57:28;;;;;;;;;42.50;34.00;;;;;14.63;50.08;102166.47;5017370;28;45367;-70
2022/04/29 02:59:55;;;;;;;;;40.67;37.67;;;;;13.67;50.29;102012.59;5016979;28;45346;-66
2022/04/29 03:02:20;;;;;;;;;36.67;31.00;;;;;14.58;50.49;102166.84;5016711;28;45302;-67
2022/04/29 03:04:45;;;;;;;;;46.33;35.33;;;;;14.45;50.59;102160.06;5016754;28;45445;-67
2022/04/29 03:07:11;;;;;;;;;54.33;42.00;;;;;14.56;50.69;102162.63;5032578;28;45271;-67
2022/04/29 03:09:36;;;;;;;;;37.33;35.00;;;;;13.97;50.00;102053.66;5016755;28;46369;-66
2022/04/29 03:12:02;;;;;;;;;35.67;31.00;;;;;14.38;50.42;102134.78;5000069;28;45433;-68
2022/04/29 03:14:28;;;;;;;;;44.25;37.50;;;;;13.76;50.48;102028.81;4997059;28;45271;-66
2022/04/29 03:16:53;;;;;;;;;30.00;27.33;;;;;14.50;50.66;102168.53;4997142;28;45458;-69
2022/04/29 03:19:19;;;;;;;;;46.67;38.67;;;;;14.13;50.59;102091.47;4996647;28;46324;-67
2022/04/29 03:21:45;;;;;;;;;40.33;35.00;;;;;13.93;50.43;102073.63;5009328;28;45200;-66
2022/04/29 03:24:13;;;;;;;;;38.67;35.67;;;;;14.56;50.35;102157.28;5016627;28;45463;-67
2022/04/29 03:26:40;;;;;;;;;41.67;38.00;;;;;14.46;50.49;102145.69;5015169;28;45326;-68
2022/04/29 03:29:06;;;;;;;;;47.33;37.00;;;;;14.41;50.45;102153.22;5016392;28;46185;-68
2022/04/29 03:31:32;;;;;;;;;38.67;35.67;;;;;14.38;50.39;102159.69;5004785;28;45291;-68
2022/04/29 03:34:00;;;;;;;;;35.33;32.00;;;;;13.85;50.17;102066.28;5009777;28;45512;-66
2022/04/29 03:36:25;;;;;;;;;37.00;35.00;;;;;14.41;50.20;102148.72;5016395;28;45397;-67
2022/04/29 03:38:51;;;;;;;;;48.00;38.33;;;;;14.39;50.20;102133.78;5016062;28;46410;-67
2022/04/29 03:41:16;;;;;;;;;40.33;34.00;;;;;14.53;50.17;102141.50;5006756;28;45346;-67
2022/04/29 03:43:44;;;;;;;;;45.00;37.00;;;;;14.49;50.07;102140.06;4996442;28;45489;-67
2022/04/29 03:46:09;;;;;;;;;41.25;36.00;;;;;13.89;50.14;102042.81;4996821;28;45278;-67
2022/04/29 03:51:20;;;;;;;;;46.00;38.33;;;;;14.15;50.29;102089.50;4996382;28;45298;-68
2022/04/29 03:53:47;;;;;;;;;43.33;36.33;;;;;14.23;50.29;102099.53;4996391;28;45227;-67
2022/04/29 03:56:12;;;;;;;;;44.67;37.33;;;;;14.33;50.33;102105.75;4996606;28;45596;-68
2022/04/29 03:58:37;;;;;;;;;40.00;32.67;;;;;14.50;50.28;102121.22;4996185;28;45518;-67
2022/04/29 04:01:03;;;;;;;;;47.67;37.33;;;;;14.47;50.39;102115.28;4996274;28;45460;-67
2022/04/29 04:03:28;;;;;;;;;38.67;35.00;;;;;14.26;50.10;102072.50;4978537;28;45276;-68
2022/04/29 04:08:37;;;;;;;;;44.67;37.33;;;;;14.44;50.08;102105.69;4994755;28;45899;-66
2022/04/29 04:11:03;;;;;;;;;43.33;36.67;;;;;14.42;50.51;102117.50;4996098;28;45553;-66
2022/04/29 04:13:29;;;;;;;;;40.67;35.00;;;;;14.24;51.05;102104.75;4995791;28;45480;-68
2022/04/29 04:15:55;;;;;;;;;51.67;42.00;;;;;14.14;50.51;102103.84;5007316;28;45408;-67
2022/04/29 04:18:20;;;;;;;;;48.00;38.67;;;;;13.97;50.87;102101.78;5030675;28;48088;-66
2022/04/29 04:20:48;;;;;;;;;46.00;39.50;;;;;13.92;51.25;102109.38;5015170;28;45269;-67
2022/04/29 04:23:14;;;;;;;;;37.67;33.00;;;;;13.94;51.40;102116.28;5015884;28;45266;-68
2022/04/29 04:25:40;;;;;;;;;40.67;35.00;;;;;13.22;51.68;101993.38;4989522;28;45337;-67
2022/04/29 04:28:05;;;;;;;;;39.33;34.67;;;;;13.86;51.35;102096.53;4995562;28;45556;-68
2022/04/29 04:30:30;;;;;;;;;37.00;33.67;;;;;13.99;51.34;102110.53;4996255;28;45338;-66
2022/04/29 04:32:56;;;;;;;;;32.33;31.00;;;;;14.17;51.27;102122.31;4996152;28;45310;-68
2022/04/29 04:35:21;;;;;;;;;38.67;32.67;;;;;13.53;50.74;102002.25;5001094;28;45412;-67
2022/04/29 04:37:48;;;;;;;;;37.00;32.33;;;;;14.23;50.88;102112.91;5005602;28;46070;-67
2022/04/29 04:40:13;;;;;;;;;40.33;33.00;;;;;14.21;50.75;102115.69;4997265;28;45435;-65
2022/04/29 04:42:44;;;;;;;;;48.67;39.33;;;;;13.33;50.42;101977.25;5015286;28;45322;-68
2022/04/29 04:45:12;;;;;;;;;43.00;37.00;;;;;14.18;51.00;102125.81;4992278;28;45351;-68
2022/04/29 04:47:38;;;;;;;;;42.00;35.33;;;;;13.47;50.63;102013.47;4984578;28;47962;-67
2022/04/29 04:50:04;;;;;;;;;38.67;33.00;;;;;14.09;50.99;102129.31;5015432;28;45541;-69
2022/04/29 04:52:29;;;;;;;;;36.00;33.00;;;;;13.84;50.68;102079.78;5015371;28;45330;-67
2022/04/29 04:54:55;;;;;;;;;38.00;35.67;;;;;14.15;50.78;102128.75;5015850;28;45452;-68
2022/04/29 04:57:20;;;;;;;;;42.33;36.67;;;;;14.12;50.30;102116.50;5009949;28;46256;-68
2022/04/29 04:59:46;;;;;;;;;40.67;35.00;;;;;14.20;50.46;102127.38;4995004;28;45274;-67
2022/04/29 05:02:11;;;;;;;;;46.67;35.00;;;;;14.09;50.43;102111.44;4995181;28;45328;-67
2022/04/29 05:04:37;;;;;;;;;40.00;35.67;;;;;14.18;50.51;102126.66;4995913;28;45311;-67
2022/04/29 05:07:03;;;;;;;;;38.33;33.00;;;;;13.97;50.50;102117.84;4997501;28;45720;-66
2022/04/29 05:09:29;;;;;;;;;42.00;35.00;;;;;14.06;50.87;102143.78;5014920;28;45182;-67
2022/04/29 05:11:54;;;;;;;;;39.00;33.67;;;;;13.65;51.04;102072.50;5017882;28;45467;-66
2022/04/29 05:14:20;;;;;;;;;40.33;33.67;;;;;13.92;50.68;102130.75;5005915;28;45628;-68
2022/04/29 05:16:45;;;;;;;;;44.33;36.33;;;;;14.03;50.80;102137.88;5000091;28;45839;-67
2022/04/29 05:19:10;;;;;;;;;35.00;30.33;;;;;13.74;51.00;102087.75;4995360;28;45235;-67
2022/04/29 05:21:36;;;;;;;;;48.00;39.33;;;;;14.03;50.96;102141.41;4998568;28;45429;-67
2022/04/29 05:24:01;;;;;;;;;46.67;36.33;;;;;14.03;50.73;102144.06;4998958;28;45287;-65
2022/04/29 05:26:27;;;;;;;;;52.00;40.00;;;;;13.92;50.88;102114.72;4997969;28;46543;-69
2022/04/29 05:28:52;;;;;;;;;32.00;29.67;;;;;13.90;50.82;102132.72;4998655;28;45306;-67
2022/04/29 05:31:18;;;;;;;;;40.33;36.00;;;;;13.75;51.03;102115.31;4997191;28;45421;-68
2022/04/29 05:33:44;;;;;;;;;36.67;34.00;;;;;13.90;50.69;102138.06;4998263;28;45528;-68
2022/04/29 05:36:13;;;;;;;;;37.00;32.33;;;;;14.00;50.65;102145.16;4998007;28;45769;-66
2022/04/29 05:44:08;;;;;;;;;34.50;32.50;;;;;13.78;51.24;102145.28;4998704;28;45512;-66
2022/04/29 05:46:35;;;;;;;;;37.33;34.33;;;;;13.70;51.29;102143.28;4998362;28;45811;-68
2022/04/29 05:49:01;;;;;;;;;36.33;32.67;;;;;13.80;51.24;102155.84;4998282;28;45493;-66
2022/04/29 05:51:26;;;;;;;;;41.00;35.67;;;;;13.78;51.18;102133.75;4981840;28;45297;-67
2022/04/29 05:53:51;;;;;;;;;40.67;33.67;;;;;13.83;50.30;102126.22;5006922;28;45499;-67
2022/04/29 05:56:16;;;;;;;;;35.67;30.00;;;;;13.89;50.70;102133.69;5017500;28;45728;-66
2022/04/29 05:58:42;;;;;;;;;39.67;32.00;;;;;13.82;50.42;102127.19;5018123;28;45458;-66
2022/04/29 06:01:07;;;;;;;;;41.67;33.33;;;;;13.92;50.74;102152.16;5016839;28;45347;-69
2022/04/29 06:03:32;;;;;;;;;34.00;31.67;;;;;14.06;50.60;102165.19;5017925;28;45282;-67
2022/04/29 06:05:58;;;;;;;;;39.67;33.67;;;;;13.76;50.23;102115.19;5016900;28;46430;-68
2022/04/29 06:08:23;;;;;;;;;47.00;37.00;;;;;13.99;50.38;102169.34;4997825;28;45331;-68
2022/04/29 06:10:49;;;;;;;;;39.67;34.00;;;;;14.04;50.72;102180.53;5003076;28;45572;-68
2022/04/29 06:13:14;;;;;;;;;34.00;28.33;;;;;13.87;50.39;102141.00;4981027;28;45476;-69
2022/04/29 06:15:40;;;;;;;;;36.67;33.33;;;;;14.03;50.21;102149.41;5003372;28;45521;-67
2022/04/29 06:18:05;;;;;;;;;37.67;31.67;;;;;14.04;50.29;102156.47;5017726;28;45346;-67
2022/04/29 06:20:31;;;;;;;;;44.33;37.67;;;;;13.39;50.11;102051.50;5016049;28;45350;-70
2022/04/29 06:22:56;;;;;;;;;46.67;36.00;;;;;14.25;49.97;102176.00;4998798;28;45599;-70
2022/04/29 06:25:25;;;;;;;;;44.67;36.00;;;;;14.32;50.05;102185.19;5017786;28;46354;-70
2022/04/29 06:27:50;;;;;;;;;39.00;35.00;;;;;13.69;49.84;102076.59;5015600;28;45479;-67
2022/04/29 06:30:16;;;;;;;;;39.67;34.00;;;;;14.36;49.79;102174.19;5015971;28;45330;-69
2022/04/29 06:32:41;;;;;;;;;32.67;30.00;;;;;13.87;49.54;102100.91;5014881;28;45531;-69
2022/04/29 06:35:07;;;;;;;;;34.00;29.67;;;;;14.45;49.26;102197.53;5015436;28;46894;-68
2022/04/29 06:37:33;;;;;;;;;38.33;34.33;;;;;14.36;49.50;102179.56;4996379;28;45528;-68
2022/04/29 06:39:59;;;;;;;;;35.67;33.33;;;;;14.37;49.75;102198.16;4997128;28;45429;-67
2022/04/29 06:42:24;;;;;;;;;44.33;37.33;;;;;14.21;49.57;102168.34;4997617;28;45295;-67
2022/04/29 06:44:50;;;;;;;;;43.67;34.33;;;;;14.17;49.48;102134.81;4995847;28;46012;-66
2022/04/29 06:47:15;;;;;;;;;49.00;38.67;;;;;14.36;49.89;102167.03;5006107;28;45469;-68
2022/04/29 06:49:40;;;;;;;;;39.33;36.67;;;;;14.51;49.49;102176.41;5017131;28;45470;-71
2022/04/29 06:52:06;;;;;;;;;40.67;35.33;;;;;14.56;49.53;102200.94;5017665;28;45373;-70
2022/04/29 06:54:32;;;;;;;;;47.00;35.00;;;;;14.36;49.50;102176.88;5008832;28;45354;-69
2022/04/29 06:56:57;;;;;;;;;40.67;35.67;;;;;13.95;49.77;102111.78;4980822;28;45477;-68
2022/04/29 06:59:23;;;;;;;;;32.33;29.33;;;;;14.21;50.06;102173.69;4979149;28;45407;-67
2022/04/29 07:01:48;;;;;;;;;47.33;38.67;;;;;14.30;50.11;102194.31;4979440;28;45500;-69
2022/04/29 07:04:13;;;;;;;;;37.67;34.67;;;;;14.21;49.91;102173.69;5010771;28;47287;-69
2022/04/29 07:06:39;;;;;;;;;39.00;35.00;;;;;14.42;50.22;102203.13;5017104;28;45301;-68
2022/04/29 07:09:04;;;;;;;;;45.33;37.00;;;;;14.35;50.55;102209.97;5017156;28;45340;-67
2022/04/29 07:11:31;;;;;;;;;43.33;35.33;;;;;14.21;50.91;102187.91;5015243;28;45294;-70
2022/04/29 07:13:57;;;;;;;;;42.67;35.67;;;;;14.22;50.92;102192.31;5016608;28;45639;-67
2022/04/29 07:16:22;;;;;;;;;45.67;35.33;;;;;14.24;50.69;102201.06;5015900;28;45231;-67
2022/04/29 07:18:48;;;;;;;;;43.33;36.33;;;;;14.26;50.39;102187.53;4998204;28;45409;-67
2022/04/29 07:21:13;;;;;;;;;46.33;38.33;;;;;13.73;50.22;102104.75;5005185;28;45524;-68
2022/04/29 07:23:39;;;;;;;;;42.33;36.67;;;;;14.36;50.42;102193.78;5005803;28;45267;-67
2022/04/29 07:26:04;;;;;;;;;44.00;36.33;;;;;14.31;50.39;102198.69;4998974;28;45377;-66
2022/04/29 07:28:30;;;;;;;;;45.33;39.00;;;;;14.37;50.18;102202.66;4998890;28;45388;-67
2022/04/29 07:30:57;;;;;;;;;43.33;37.67;;;;;14.44;50.30;102214.56;5006794;28;45406;-67
2022/04/29 07:33:23;;;;;;;;;49.33;40.33;;;;;14.49;50.75;102217.69;5016714;28;45962;-67
2022/04/29 07:44:01;;;;;;;;;47.33;37.33;;;;;14.74;50.11;102219.91;5016045;28;45380;-68
2022/04/29 07:46:27;;;;;;;;;43.00;38.33;;;;;14.66;49.92;102202.81;4998373;28;45844;-68
2022/04/29 07:48:52;;;;;;;;;41.00;36.00;;;;;14.86;49.52;102224.19;5006853;28;45386;-70
2022/04/29 07:51:18;;;;;;;;;45.00;35.00;;;;;14.95;49.72;102213.63;4996425;28;45468;-67
2022/04/29 07:53:43;;;;;;;;;49.67;41.33;;;;;15.07;49.77;102209.88;4997315;28;45687;-70
2022/04/29 07:56:09;;;;;;;;;50.00;41.33;;;;;14.84;49.18;102161.88;5012528;28;45214;-68
2022/04/29 07:58:34;;;;;;;;;54.00;42.00;;;;;14.89;49.33;102158.78;4998701;28;45491;-68
2022/04/29 08:01:01;;;;;;;;;51.67;38.00;;;;;15.37;49.13;102212.44;5010115;28;45224;-66
2022/04/29 08:03:27;;;;;;;;;44.67;37.00;;;;;15.43;48.71;102214.59;5009521;28;45723;-67
2022/04/29 08:05:53;;;;;;;;;45.33;34.00;;;;;15.32;48.64;102193.25;4996457;28;45548;-68
2022/04/29 08:08:19;;;;;;;;;47.33;40.00;;;;;15.33;48.74;102219.06;5000731;28;45285;-68
2022/04/29 08:10:45;;;;;;;;;41.67;38.00;;;;;15.14;48.93;102194.91;4996346;28;45436;-67
2022/04/29 08:13:13;;;;;;;;;51.67;40.67;;;;;15.15;48.74;102207.31;5007467;28;46845;-69
2022/04/29 08:15:43;;;;;;;;;52.67;45.00;;;;;15.24;49.07;102205.66;5014348;28;45377;-69
2022/04/29 08:18:08;;;;;;;;;52.00;43.33;;;;;14.75;49.13;102151.13;5014680;28;45452;-67
2022/04/29 08:20:34;;;;;;;;;53.33;44.00;;;;;15.29;49.43;102223.00;5002003;28;45495;-67
2022/04/29 08:22:59;;;;;;;;;50.67;37.67;;;;;15.26;49.17;102199.19;5015792;28;45948;-68
2022/04/29 08:25:25;;;;;;;;;47.33;41.33;;;;;15.54;48.81;102235.03;5015529;28;45491;-65
2022/04/29 08:27:51;;;;;;;;;44.33;38.00;;;;;15.56;48.69;102210.75;5010047;28;45532;-68
2022/04/29 08:30:17;;;;;;;;;49.00;40.00;;;;;15.64;48.40;102216.31;4993454;28;45563;-66
2022/04/29 08:32:44;;;;;;;;;50.25;39.75;;;;;15.65;48.58;102186.69;5012116;28;47951;-67
2022/04/29 08:35:11;;;;;;;;;49.33;38.67;;;;;15.98;47.69;102220.22;4995922;28;45461;-68
2022/04/29 08:37:41;;;;;;;;;50.00;38.75;;;;;14.93;47.71;102022.78;4989674;28;45559;-69
2022/04/29 08:40:08;;;;;;;;;46.67;38.00;;;;;16.10;47.42;102197.63;5015057;28;45575;-68
2022/04/29 08:42:38;;;;;;;;;45.00;39.00;;;;;16.46;47.14;102223.81;5007010;28;46755;-69
2022/04/29 08:45:09;;;;;;;;;53.00;42.50;;;;;16.84;46.44;102222.84;4976400;28;45709;-68
2022/04/29 08:47:36;;;;;;;;;56.00;43.00;;;;;17.10;45.47;102183.50;5008623;28;45471;-68
2022/04/29 08:50:04;;;;;;;;;46.75;39.50;;;;;17.67;45.00;102192.13;5011263;28;45488;-71
2022/04/29 08:52:30;;;;;;;;;50.25;42.25;;;;;18.38;43.25;102213.50;5013793;28;45428;-68
2022/04/29 09:00:26;;;;;;;;;52.33;42.33;;;;;19.34;39.66;102205.16;5010870;28;45321;-69
2022/04/29 09:02:52;;;;;;;;;49.75;42.25;;;;;20.06;38.72;102222.44;5002434;28;45509;-69
2022/04/29 09:05:17;;;;;;;;;52.75;43.75;;;;;20.46;37.82;102207.19;4998629;28;45483;-68
2022/04/29 09:08:00;;;;;;;;;51.33;39.00;;;;;20.94;36.90;102222.38;5013853;28;45401;-69
2022/04/29 09:10:33;;;;;;;;;48.33;39.67;;;;;20.75;36.60;102222.78;5016644;28;45531;-70
2022/04/29 09:13:14;;;;;;;;;48.00;40.33;;;;;20.43;37.35;102211.09;4980898;28;48288;-69
2022/04/29 09:15:51;;;;;;;;;48.25;40.25;;;;;20.41;37.18;102220.38;4998651;28;45342;-68
2022/04/29 09:18:39;;;;;;;;;46.67;39.33;;;;;20.41;37.28;102214.97;5003201;28;45574;-67
2022/04/29 09:21:12;;;;;;;;;52.33;42.00;;;;;20.73;37.34;102217.56;5018715;28;45436;-68
2022/04/29 09:23:39;;;;;;;;;50.67;41.00;;;;;21.51;36.18;102208.53;5000489;28;47325;-66
2022/04/29 09:26:06;;;;;;;;;52.00;42.33;;;;;22.07;34.73;102204.56;5000349;28;45514;-68
2022/04/29 09:28:33;;;;;;;;;49.67;38.00;;;;;22.64;33.83;102189.53;5003619;28;45446;-68
2022/04/29 09:31:03;;;;;;;;;51.33;43.00;;;;;23.50;32.93;102207.66;4998913;28;45495;-66
2022/04/29 09:33:30;;;;;;;;;52.33;42.67;;;;;23.88;31.19;102208.25;4998175;28;46817;-70
2022/04/29 09:35:56;;;;;;;;;51.33;43.33;;;;;24.13;30.51;102205.09;4996772;28;45418;-71
2022/04/29 09:41:07;;;;;;;;;47.33;39.67;;;;;24.07;30.96;102193.16;5011686;28;45496;-68
2022/04/29 09:43:36;;;;;;;;;46.33;36.33;;;;;23.17;31.39;102166.59;5008457;28;45919;-71
2022/04/29 09:46:08;;;;;;;;;53.33;42.33;;;;;23.37;32.05;102194.78;5014389;28;45543;-69
2022/04/29 09:48:52;;;;;;;;;47.00;37.67;;;;;23.41;31.75;102164.53;5017342;28;45547;-67
2022/04/29 09:51:44;;;;;;;;;40.00;35.67;;;;;23.91;31.21;102182.56;5018293;28;45563;-70
2022/04/29 09:54:25;;;;;;;;;44.00;39.00;;;;;24.04;30.95;102181.84;5017380;28;46537;-67
2022/04/29 09:57:10;;;;;;;;;49.00;40.00;;;;;24.42;30.49;102190.47;4996169;28;45879;-68
2022/04/29 09:59:46;;;;;;;;;45.00;38.67;;;;;24.16;30.60;102191.09;5013626;28;45682;-69
2022/04/29 10:02:21;;;;;;;;;49.67;39.00;;;;;23.85;30.65;102172.50;5016063;28;45495;-68
2022/04/29 10:04:48;;;;;;;;;46.67;40.00;;;;;23.64;31.30;102197.81;5017601;28;45662;-67
2022/04/29 10:07:16;;;;;;;;;48.00;39.33;;;;;23.11;32.37;102190.97;5015457;28;45347;-70
2022/04/29 10:09:48;;;;;;;;;54.00;41.67;;;;;22.43;34.08;102168.63;5007303;28;45462;-70
2022/04/29 10:12:21;;;;;;;;;43.67;35.33;;;;;22.32;33.82;102191.59;5008611;28;45586;-70
2022/04/29 10:14:48;;;;;;;;;43.67;38.00;;;;;21.93;34.49;102188.22;4995710;28;46314;-69
2022/04/29 10:23:15;;;;;;;;;47.00;38.67;;;;;21.34;35.80;102191.59;5007449;28;45579;-70
2022/04/29 10:25:43;;;;;;;;;45.33;38.67;;;;;21.38;35.41;102187.50;5017163;28;46535;-70
2022/04/29 10:28:12;;;;;;;;;50.00;41.00;;;;;21.53;34.76;102188.41;4999760;28;45496;-70
2022/04/29 10:30:39;;;;;;;;;43.67;35.67;;;;;20.90;35.19;102102.94;4999498;28;45462;-69
2022/04/29 10:33:12;;;;;;;;;50.67;38.67;;;;;21.55;35.30;102191.75;4996563;28;45801;-68
2022/04/29 10:35:53;;;;;;;;;50.33;41.67;;;;;21.50;35.08;102193.34;4997489;28;45606;-69
2022/04/29 10:38:35;;;;;;;;;40.67;35.00;;;;;21.29;35.06;102198.56;4999050;28;45495;-66
2022/04/29 10:41:06;;;;;;;;;49.33;40.33;;;;;21.18;35.59;102186.25;5005947;28;45487;-69
2022/04/29 10:43:35;;;;;;;;;47.00;38.33;;;;;21.23;35.42;102179.28;5017452;28;45651;-69
2022/04/29 10:46:04;;;;;;;;;43.00;37.67;;;;;21.23;35.31;102186.56;5017042;28;45294;-68
2022/04/29 10:48:34;;;;;;;;;40.67;35.67;;;;;20.96;35.97;102188.72;4997737;28;45528;-71
2022/04/29 10:51:10;;;;;;;;;48.00;39.00;;;;;20.79;36.50;102186.28;5016881;28;45480;-68
2022/04/29 10:53:41;;;;;;;;;39.00;34.33;;;;;20.62;36.67;102131.47;5017323;28;45345;-68
2022/04/29 10:56:32;;;;;;;;;44.33;36.67;;;;;20.90;36.33;102181.34;5016789;28;45486;-69
2022/04/29 10:59:04;;;;;;;;;48.00;40.00;;;;;20.89;36.43;102182.34;5011560;28;45367;-69
2022/04/29 11:01:34;;;;;;;;;44.67;38.00;;;;;20.64;36.77;102157.31;5013841;28;45382;-69
2022/04/29 11:04:05;;;;;;;;;54.00;41.00;;;;;20.60;37.08;102160.53;5001840;28;45451;-71
2022/04/29 11:06:46;;;;;;;;;46.67;39.00;;;;;20.49;36.78;102120.41;5016697;28;46107;-69
2022/04/29 11:09:27;;;;;;;;;44.67;37.67;;;;;20.82;37.06;102177.81;5015743;28;45482;-70
2022/04/29 11:11:54;;;;;;;;;46.67;39.00;;;;;20.76;36.82;102148.81;4995368;28;45537;-69
2022/04/29 11:14:20;;;;;;;;;50.33;41.00;;;;;20.84;37.00;102178.50;5009481;28;45433;-68
2022/04/29 11:16:52;;;;;;;;;50.00;39.33;;;;;20.68;37.11;102157.81;5016362;28;45646;-67
2022/04/29 11:19:22;;;;;;;;;48.33;39.67;;;;;20.72;37.37;102169.09;4998165;28;45407;-68
2022/04/29 11:24:53;;;;;;;;;40.67;36.67;;;;;20.86;36.79;102157.53;4996388;28;45520;-68
2022/04/29 11:27:26;;;;;;;;;43.00;37.67;;;;;20.92;36.52;102154.13;4978063;28;47273;-67
2022/04/29 11:29:53;;;;;;;;;52.67;40.33;;;;;19.12;36.80;101867.81;4995971;28;45805;-69
2022/04/29 11:32:23;;;;;;;;;47.00;37.33;;;;;20.80;36.19;102169.03;4995750;28;45371;-67
2022/04/29 11:34:54;;;;;;;;;49.00;38.00;;;;;20.74;36.02;102154.38;4992008;28;45531;-67
2022/04/29 11:37:28;;;;;;;;;42.33;36.67;;;;;20.75;36.12;102156.06;4996257;28;46105;-70
2022/04/29 11:39:55;;;;;;;;;45.33;35.67;;;;;20.71;36.26;102153.91;5007819;28;45314;-67
2022/04/29 11:42:21;;;;;;;;;41.67;35.67;;;;;20.67;36.50;102145.31;5014237;28;45562;-68
2022/04/29 11:44:49;;;;;;;;;39.33;35.33;;;;;20.64;37.15;102145.66;5014644;28;45425;-69
2022/04/29 11:47:16;;;;;;;;;39.00;34.33;;;;;20.60;37.24;102149.72;4994976;28;48533;-68